Impacts METAR Board
IDs:

KMDW - Chicago/Midway Intl, IL, US

Updated at: 0700 UTC 24 Jun 2018
Potential Impact None Slight Moderate High
Time 23/19Z 23/20Z 23/21Z 23/22Z 23/23Z 24/00Z 24/01Z 24/02Z 24/03Z 24/04Z 24/05Z 24/06Z 24/07Z
Temp78 80 77 77 76 76 75 73 72 71 71 71 70
Dewpt55 55 54 54 55 56 56 63 64 65 65 65 65
Altim29.74 29.75 29.76 29.76 29.76 29.77 29.77 29.77 29.79 29.80 29.81 29.82 29.82
VIS10 10 10 10 10 10 10 10 10 10 10 10 10
CIG-- -- 75 250 250 250 95 150 100 110 110 120 120
CoverSCTSCTBKNBKNBKNBKNBKNBKNBKNBKNOVCOVCBKN
FltCatVFRVFRVFRVFRVFRVFRVFRVFRVFRVFRVFRVFRVFR
WX--------------------------
WDir01070100110130160210230230250270260
WSpd0 4 7 8 7 7 6 8 10 7 6 6 5
WGst-- -- -- -- -- -- -- -- -- -- -- -- --
Raw hourly METARs
KMDW 231853Z 00000KT 10SM FEW050 FEW065 SCT250 26/13 A2974 RMK AO2 SLP064 T02560128
KMDW 231953Z 01004KT 10SM FEW055 SCT070 SCT250 27/13 A2975 RMK AO2 SLP065 T02670128
KMDW 232053Z 07007KT 040V100 10SM SCT060 BKN075 BKN250 25/12 A2976 RMK AO2 SLP069 T02500122 53003
KMDW 232153Z 10008KT 10SM FEW060 SCT100 BKN250 25/12 A2976 RMK AO2 SLP070 T02500122
KMDW 232253Z 11007KT 10SM SCT050TCU SCT100 BKN250 24/13 A2976 RMK AO2 SLP071 TCU S-SW T02440128
KMDW 232353Z 13007KT 10SM SCT050TCU SCT095 BKN250 24/13 A2977 RMK AO2 SLP072 TCU S-SW T02440133 10272 20244 53004
KMDW 240053Z 16006KT 10SM FEW060 BKN095 BKN250 24/13 A2977 RMK AO2 SLP072 T02390133
KMDW 240153Z 21008KT 10SM FEW060 BKN150 BKN190 BKN250 23/17 A2977 RMK AO2 SLP074 T02280172
KMDW 240253Z 23010KT 10SM BKN100 22/18 A2979 RMK AO2 SLP082 T02220178 53009
KMDW 240353Z 23007KT 10SM BKN110 22/18 A2980 RMK AO2 SLP084 T02170183
KMDW 240453Z 25006KT 10SM BKN110 OVC200 22/18 A2981 RMK AO2 SLP087 T02170183
KMDW 240553Z 27006KT 10SM BKN120 OVC200 22/18 A2982 RMK AO2 SLP088 T02170183 10244 20217 402720167 51007
KMDW 240653Z 26005KT 10SM BKN120 BKN150 21/18 A2982 RMK AO2 SLP087 T02110183



Page loaded:  07:10 UTC  |   12:10 AM Pacific  |   01:10 AM Mountain  |   02:10 AM Central  |   03:10 AM Eastern

 

ADVISORIES

FORECASTS

FORECASTS

OBSERVATIONS

USER TOOLS

ABOUT US